Time;durP1;ratioP1;P1;durP2;ratioP2;P2;SDS_P1;SDS_P2;PMS_P1;PMS_P2;Temp;Humidity;BMP_temperature;BMP_pressure;BME280_temperature;BME280_humidity;BME280_pressure;Samples;Min_cycle;Max_cycle;Signal;HPM_P1;HPM_P2
2021/03/17 00:00:42;;;;;;;15.48;10.50;;;;;;;;;;4943950;28;20035;-75
2021/03/17 00:03:08;;;;;;;12.38;8.98;;;;;;;;;;4940848;28;20793;-76
2021/03/17 00:05:36;;;;;;;11.10;7.80;;;;;;;;;;4934496;28;20035;-75
2021/03/17 00:08:02;;;;;;;11.73;8.70;;;;;;;;;;4943414;28;20035;-75
2021/03/17 00:10:31;;;;;;;16.60;8.55;;;;;;;;;;4938483;28;20032;-75
2021/03/17 00:12:57;;;;;;;11.70;7.75;;;;;;;;;;4934101;28;20122;-76
2021/03/17 00:15:24;;;;;;;11.60;8.75;;;;;;;;;;4940739;28;20032;-75
2021/03/17 00:17:50;;;;;;;12.82;8.80;;;;;;;;;;4936479;28;20118;-74
2021/03/17 00:20:17;;;;;;;12.38;9.30;;;;;;;;;;4939280;29;20127;-74
2021/03/17 00:22:43;;;;;;;10.90;8.05;;;;;;;;;;4930561;29;20481;-75
2021/03/17 00:25:09;;;;;;;11.77;8.60;;;;;;;;;;4938378;29;20187;-75
2021/03/17 00:27:35;;;;;;;11.02;8.43;;;;;;;;;;4929696;29;20081;-75
2021/03/17 00:30:01;;;;;;;12.00;9.48;;;;;;;;;;4936775;28;20111;-76
2021/03/17 00:32:27;;;;;;;11.27;8.20;;;;;;;;;;4941684;28;20493;-76
2021/03/17 00:34:53;;;;;;;13.93;9.43;;;;;;;;;;4938288;28;20488;-75
2021/03/17 00:37:19;;;;;;;13.07;8.68;;;;;;;;;;4936100;28;20481;-76
2021/03/17 00:39:45;;;;;;;10.63;7.63;;;;;;;;;;4929877;28;20392;-75
2021/03/17 00:42:11;;;;;;;10.35;7.18;;;;;;;;;;4941274;28;20035;-75
2021/03/17 00:44:37;;;;;;;10.68;6.70;;;;;;;;;;4939807;28;20058;-74
2021/03/17 00:47:03;;;;;;;8.18;6.32;;;;;;;;;;4936929;28;20409;-75
2021/03/17 00:49:30;;;;;;;10.40;7.80;;;;;;;;;;4941913;28;20035;-74
2021/03/17 00:51:56;;;;;;;10.30;6.75;;;;;;;;;;4939163;29;20035;-75
2021/03/17 00:54:22;;;;;;;8.98;5.95;;;;;;;;;;4941699;29;20031;-75
2021/03/17 00:56:48;;;;;;;7.13;5.43;;;;;;;;;;4942512;28;20157;-75
2021/03/17 00:59:14;;;;;;;7.18;5.45;;;;;;;;;;4938260;29;20106;-75
2021/03/17 01:01:40;;;;;;;8.23;5.95;;;;;;;;;;4942138;28;20035;-76
2021/03/17 01:04:06;;;;;;;7.32;5.32;;;;;;;;;;4938434;29;20394;-74
2021/03/17 01:06:32;;;;;;;8.73;5.78;;;;;;;;;;4939239;28;20048;-75
2021/03/17 01:08:58;;;;;;;7.35;5.75;;;;;;;;;;4936411;29;20031;-75
2021/03/17 01:11:24;;;;;;;8.43;5.30;;;;;;;;;;4940848;28;20035;-75
2021/03/17 01:13:49;;;;;;;6.13;5.10;;;;;;;;;;4933796;29;20046;-75
2021/03/17 01:16:16;;;;;;;7.45;5.65;;;;;;;;;;4944400;28;20489;-75
2021/03/17 01:18:42;;;;;;;7.45;5.30;;;;;;;;;;4937238;28;20080;-75
2021/03/17 01:21:08;;;;;;;8.82;5.53;;;;;;;;;;4933108;28;20028;-75
2021/03/17 01:23:34;;;;;;;9.95;6.35;;;;;;;;;;4947583;28;20530;-75
2021/03/17 01:26:00;;;;;;;10.15;6.30;;;;;;;;;;4933246;28;20036;-75
2021/03/17 01:28:25;;;;;;;10.48;6.40;;;;;;;;;;4935534;28;20026;-75
2021/03/17 01:30:53;;;;;;;9.98;6.43;;;;;;;;;;4958273;28;20035;-75
2021/03/17 01:33:19;;;;;;;9.77;7.22;;;;;;;;;;4946762;28;20031;-76
2021/03/17 01:35:47;;;;;;;10.52;6.43;;;;;;;;;;4959536;28;20106;-76
2021/03/17 01:38:13;;;;;;;10.43;7.63;;;;;;;;;;4965862;28;20027;-74
2021/03/17 01:40:40;;;;;;;10.00;7.50;;;;;;;;;;4953639;28;20039;-76
2021/03/17 01:43:06;;;;;;;11.07;7.25;;;;;;;;;;4963438;28;20465;-74
2021/03/17 01:45:32;;;;;;;11.80;7.30;;;;;;;;;;4954074;28;20122;-73
2021/03/17 01:47:59;;;;;;;11.82;8.00;;;;;;;;;;4945633;28;20032;-74
2021/03/17 01:50:26;;;;;;;11.13;7.13;;;;;;;;;;4946547;28;20043;-74
2021/03/17 01:52:53;;;;;;;10.77;6.60;;;;;;;;;;4944381;28;20043;-74
2021/03/17 01:55:20;;;;;;;10.38;7.10;;;;;;;;;;4944264;28;20085;-74
2021/03/17 01:57:46;;;;;;;10.77;6.93;;;;;;;;;;4944489;29;20031;-74
2021/03/17 02:00:13;;;;;;;10.95;7.47;;;;;;;;;;4948955;28;20030;-75
2021/03/17 02:02:40;;;;;;;14.35;6.35;;;;;;;;;;4953080;28;20031;-75
2021/03/17 02:05:09;;;;;;;11.63;7.30;;;;;;;;;;4947336;28;20477;-75
2021/03/17 02:07:34;;;;;;;10.75;6.47;;;;;;;;;;4946517;29;20385;-75
2021/03/17 02:10:01;;;;;;;10.52;5.85;;;;;;;;;;4946916;28;20035;-76
2021/03/17 02:12:34;;;;;;;8.07;5.53;;;;;;;;;;4935512;28;20027;-75
2021/03/17 02:15:07;;;;;;;9.50;5.70;;;;;;;;;;4943091;29;20090;-75
2021/03/17 02:17:34;;;;;;;8.40;5.07;;;;;;;;;;4940712;28;20513;-75
2021/03/17 02:20:09;;;;;;;7.22;4.93;;;;;;;;;;4935232;28;20031;-75
2021/03/17 02:22:50;;;;;;;7.22;4.63;;;;;;;;;;4948989;28;20035;-75
2021/03/17 02:25:23;;;;;;;7.05;4.85;;;;;;;;;;4933839;28;20051;-75
2021/03/17 02:27:52;;;;;;;4.78;3.38;;;;;;;;;;4949140;28;20112;-75
2021/03/17 02:30:21;;;;;;;7.70;3.75;;;;;;;;;;4947274;28;20511;-75
2021/03/17 02:33:05;;;;;;;7.43;3.30;;;;;;;;;;4948386;28;20019;-75
2021/03/17 02:35:31;;;;;;;5.07;3.70;;;;;;;;;;4935612;28;20465;-75
2021/03/17 02:38:00;;;;;;;7.72;2.90;;;;;;;;;;4933077;28;20043;-75
2021/03/17 02:40:30;;;;;;;5.05;2.72;;;;;;;;;;4948737;28;20042;-75
2021/03/17 02:42:59;;;;;;;4.38;2.95;;;;;;;;;;4948380;28;20023;-75
2021/03/17 02:45:27;;;;;;;5.05;2.75;;;;;;;;;;4948778;29;20028;-75
2021/03/17 02:47:55;;;;;;;4.15;2.65;;;;;;;;;;4931962;28;20054;-75
2021/03/17 02:50:21;;;;;;;4.50;2.05;;;;;;;;;;4936049;28;20038;-75
2021/03/17 02:52:50;;;;;;;6.10;2.60;;;;;;;;;;4935300;28;20386;-74
2021/03/17 02:55:16;;;;;;;4.10;2.53;;;;;;;;;;4929166;29;20040;-76
2021/03/17 02:57:44;;;;;;;4.15;2.25;;;;;;;;;;4940359;28;20266;-76
2021/03/17 03:00:12;;;;;;;4.03;2.30;;;;;;;;;;4946922;28;20499;-75
2021/03/17 03:02:39;;;;;;;7.43;2.03;;;;;;;;;;4943962;28;20027;-75
2021/03/17 03:05:07;;;;;;;5.90;2.10;;;;;;;;;;4955274;28;20035;-75
2021/03/17 03:07:33;;;;;;;4.00;1.45;;;;;;;;;;4936603;28;20193;-75
2021/03/17 03:10:00;;;;;;;7.85;2.05;;;;;;;;;;4946673;28;20031;-75
2021/03/17 03:12:27;;;;;;;3.83;1.77;;;;;;;;;;4948051;28;20043;-75
2021/03/17 03:14:54;;;;;;;5.07;2.00;;;;;;;;;;4930324;28;20402;-75
2021/03/17 03:17:20;;;;;;;7.20;2.00;;;;;;;;;;4937126;28;20090;-75
2021/03/17 03:19:49;;;;;;;8.90;2.47;;;;;;;;;;4946773;29;20447;-75
2021/03/17 03:22:15;;;;;;;5.95;2.72;;;;;;;;;;4945700;28;20035;-75
2021/03/17 03:24:42;;;;;;;10.95;3.17;;;;;;;;;;4945427;28;20035;-75
2021/03/17 03:27:08;;;;;;;10.32;3.63;;;;;;;;;;4944697;28;20028;-75
2021/03/17 03:29:35;;;;;;;8.52;4.15;;;;;;;;;;4936031;29;20030;-76
2021/03/17 03:32:02;;;;;;;5.65;4.20;;;;;;;;;;4946567;29;20130;-76
2021/03/17 03:34:28;;;;;;;5.93;3.85;;;;;;;;;;4947645;28;20032;-75
2021/03/17 03:36:54;;;;;;;6.75;3.35;;;;;;;;;;4951704;28;20031;-75
2021/03/17 03:39:20;;;;;;;5.57;3.20;;;;;;;;;;4936816;28;20389;-75
2021/03/17 03:41:46;;;;;;;6.38;3.85;;;;;;;;;;4936060;28;20035;-75
2021/03/17 03:44:12;;;;;;;8.23;4.00;;;;;;;;;;4947519;28;20034;-75
2021/03/17 03:46:39;;;;;;;6.93;3.35;;;;;;;;;;4953204;28;20023;-75
2021/03/17 03:49:05;;;;;;;4.32;2.75;;;;;;;;;;4954385;28;20027;-75
2021/03/17 03:51:32;;;;;;;5.82;3.05;;;;;;;;;;4947215;28;20031;-74
2021/03/17 03:54:13;;;;;;;5.15;3.55;;;;;;;;;;4939907;28;20027;-74
2021/03/17 03:56:42;;;;;;;4.55;3.13;;;;;;;;;;4933922;29;20110;-74
2021/03/17 03:59:10;;;;;;;6.32;2.90;;;;;;;;;;4947597;28;20035;-74
2021/03/17 04:01:42;;;;;;;3.90;2.45;;;;;;;;;;4947306;28;20436;-74
2021/03/17 04:04:15;;;;;;;6.78;2.20;;;;;;;;;;4960286;28;20495;-74
2021/03/17 04:06:45;;;;;;;4.15;1.80;;;;;;;;;;4940632;28;20022;-74
2021/03/17 04:09:11;;;;;;;4.93;1.80;;;;;;;;;;4940255;28;20393;-74
2021/03/17 04:11:38;;;;;;;4.05;1.60;;;;;;;;;;4927608;28;20123;-74
2021/03/17 04:14:09;;;;;;;7.78;1.63;;;;;;;;;;4938053;28;20028;-74
2021/03/17 04:16:36;;;;;;;5.20;1.55;;;;;;;;;;4930624;28;20097;-74
2021/03/17 04:19:03;;;;;;;3.60;1.40;;;;;;;;;;4936988;28;20514;-74
2021/03/17 04:21:30;;;;;;;3.05;1.00;;;;;;;;;;4946540;28;20125;-74
2021/03/17 04:23:57;;;;;;;3.60;0.75;;;;;;;;;;4959447;28;20126;-74
2021/03/17 04:26:24;;;;;;;3.00;0.88;;;;;;;;;;4933561;28;20507;-74
2021/03/17 04:28:52;;;;;;;1.70;0.80;;;;;;;;;;4952441;28;20095;-74
2021/03/17 04:31:19;;;;;;;2.47;0.60;;;;;;;;;;4954964;28;20507;-74
2021/03/17 04:33:45;;;;;;;4.68;0.75;;;;;;;;;;4946984;28;20035;-74
2021/03/17 04:36:12;;;;;;;1.75;0.50;;;;;;;;;;4937150;29;20040;-74
2021/03/17 04:38:38;;;;;;;4.35;0.50;;;;;;;;;;4941876;28;20538;-74
2021/03/17 04:41:04;;;;;;;1.63;0.57;;;;;;;;;;4955563;28;20062;-74
2021/03/17 04:43:31;;;;;;;3.13;1.02;;;;;;;;;;4938078;28;20078;-74
2021/03/17 04:46:00;;;;;;;2.70;0.52;;;;;;;;;;4941109;28;20397;-74
2021/03/17 04:48:26;;;;;;;3.78;0.40;;;;;;;;;;4939547;28;20023;-74
2021/03/17 04:50:54;;;;;;;2.80;0.85;;;;;;;;;;4959984;28;20039;-74
2021/03/17 04:53:20;;;;;;;2.35;0.30;;;;;;;;;;4946528;28;20118;-74
2021/03/17 04:55:46;;;;;;;2.72;0.85;;;;;;;;;;4945304;28;20323;-74
2021/03/17 04:58:20;;;;;;;2.70;0.60;;;;;;;;;;4946816;28;20547;-74
2021/03/17 05:00:47;;;;;;;5.40;0.80;;;;;;;;;;4945040;28;20074;-74
2021/03/17 05:03:15;;;;;;;3.72;0.60;;;;;;;;;;4946705;28;20085;-74
2021/03/17 05:05:41;;;;;;;2.15;0.52;;;;;;;;;;4958384;28;20057;-74
2021/03/17 05:08:08;;;;;;;4.35;0.50;;;;;;;;;;4941868;28;20027;-74
2021/03/17 05:10:35;;;;;;;5.30;0.70;;;;;;;;;;4938152;28;20058;-74
2021/03/17 05:13:01;;;;;;;1.95;0.65;;;;;;;;;;4946627;28;20455;-74
2021/03/17 05:15:27;;;;;;;3.10;0.57;;;;;;;;;;4946609;28;20106;-74
2021/03/17 05:17:53;;;;;;;3.42;0.47;;;;;;;;;;4944067;28;20067;-74
2021/03/17 05:20:20;;;;;;;2.63;0.70;;;;;;;;;;4946687;28;20066;-74
2021/03/17 05:22:48;;;;;;;2.13;0.40;;;;;;;;;;4946869;28;20028;-74
2021/03/17 05:25:15;;;;;;;2.60;0.52;;;;;;;;;;4944806;28;20432;-74
2021/03/17 05:27:41;;;;;;;8.55;0.85;;;;;;;;;;4946957;28;20089;-74
2021/03/17 05:30:09;;;;;;;2.42;0.63;;;;;;;;;;4945907;28;20023;-74
2021/03/17 05:32:35;;;;;;;4.07;0.68;;;;;;;;;;4946279;28;20054;-74
2021/03/17 05:35:03;;;;;;;2.53;0.60;;;;;;;;;;4931177;29;20069;-74
2021/03/17 05:37:30;;;;;;;1.42;0.73;;;;;;;;;;4948233;28;20114;-74
2021/03/17 05:39:56;;;;;;;6.80;1.15;;;;;;;;;;4934173;28;20036;-75
2021/03/17 05:42:22;;;;;;;3.00;0.93;;;;;;;;;;4935512;29;20044;-74
2021/03/17 05:44:48;;;;;;;5.03;1.30;;;;;;;;;;4935737;28;20024;-74
2021/03/17 05:47:15;;;;;;;2.60;0.98;;;;;;;;;;4931994;28;20165;-74
2021/03/17 05:49:41;;;;;;;1.40;0.68;;;;;;;;;;4940095;28;20032;-74
2021/03/17 05:52:07;;;;;;;4.00;0.52;;;;;;;;;;4942436;28;20035;-74
2021/03/17 05:54:34;;;;;;;2.58;0.50;;;;;;;;;;4949427;28;20037;-74
2021/03/17 05:57:01;;;;;;;3.17;1.05;;;;;;;;;;4936885;28;20067;-74
2021/03/17 05:59:27;;;;;;;4.03;0.60;;;;;;;;;;4932947;28;20113;-74
2021/03/17 06:01:53;;;;;;;1.73;0.47;;;;;;;;;;4949249;28;20039;-74
2021/03/17 06:04:20;;;;;;;2.33;0.63;;;;;;;;;;4951878;28;20022;-74
2021/03/17 06:06:46;;;;;;;1.85;0.50;;;;;;;;;;4965910;28;20569;-74
2021/03/17 06:09:13;;;;;;;2.90;0.40;;;;;;;;;;4942462;28;20040;-74
2021/03/17 06:11:39;;;;;;;4.63;0.93;;;;;;;;;;4949410;28;20035;-74
2021/03/17 06:14:07;;;;;;;2.63;0.50;;;;;;;;;;4948754;28;20028;-74
2021/03/17 06:16:34;;;;;;;1.45;0.40;;;;;;;;;;4948853;28;20039;-74
2021/03/17 06:19:03;;;;;;;1.63;0.70;;;;;;;;;;4949025;28;20114;-74
2021/03/17 06:21:29;;;;;;;7.40;0.77;;;;;;;;;;4946269;28;20032;-74
2021/03/17 06:23:57;;;;;;;2.55;0.60;;;;;;;;;;4937041;28;20028;-74
2021/03/17 06:26:23;;;;;;;4.68;0.88;;;;;;;;;;4960571;28;20520;-74
2021/03/17 06:28:49;;;;;;;1.45;0.73;;;;;;;;;;4947480;28;20023;-74
2021/03/17 06:31:16;;;;;;;1.88;0.65;;;;;;;;;;4948885;28;20035;-74
2021/03/17 06:33:42;;;;;;;2.67;0.75;;;;;;;;;;4962457;28;20045;-74
2021/03/17 06:36:12;;;;;;;3.63;1.58;;;;;;;;;;4940011;28;20507;-74
2021/03/17 06:38:38;;;;;;;3.80;0.90;;;;;;;;;;4947883;28;20038;-74
2021/03/17 06:41:04;;;;;;;3.75;0.95;;;;;;;;;;4946139;28;20369;-74
2021/03/17 06:43:40;;;;;;;1.52;0.95;;;;;;;;;;4948549;28;20026;-74
2021/03/17 06:46:07;;;;;;;5.13;0.88;;;;;;;;;;4942981;28;20497;-74
2021/03/17 06:48:34;;;;;;;2.95;0.93;;;;;;;;;;4948727;28;20023;-74
2021/03/17 06:51:10;;;;;;;3.95;1.33;;;;;;;;;;4935428;28;20039;-74
2021/03/17 06:53:37;;;;;;;2.90;1.20;;;;;;;;;;4946745;28;20054;-74
2021/03/17 06:56:13;;;;;;;2.83;1.30;;;;;;;;;;4934606;28;20035;-74
2021/03/17 06:58:40;;;;;;;3.47;1.25;;;;;;;;;;4936979;28;20036;-74
2021/03/17 07:01:22;;;;;;;5.00;1.20;;;;;;;;;;4960281;28;20089;-74
2021/03/17 07:03:52;;;;;;;2.65;0.80;;;;;;;;;;4947213;28;20497;-74
2021/03/17 07:06:18;;;;;;;1.85;0.75;;;;;;;;;;4943612;28;20023;-74
2021/03/17 07:08:44;;;;;;;2.75;0.90;;;;;;;;;;4944123;28;20077;-74
2021/03/17 07:11:10;;;;;;;1.15;0.60;;;;;;;;;;4936739;28;20042;-73
2021/03/17 07:13:36;;;;;;;3.05;0.73;;;;;;;;;;4942017;28;20117;-73
2021/03/17 07:16:02;;;;;;;5.13;0.93;;;;;;;;;;4947512;28;20408;-73
2021/03/17 07:18:30;;;;;;;1.70;0.52;;;;;;;;;;4937580;28;20037;-74
2021/03/17 07:21:05;;;;;;;1.42;0.60;;;;;;;;;;4940478;29;20032;-73
2021/03/17 07:23:35;;;;;;;1.92;0.80;;;;;;;;;;4937757;28;20027;-74
2021/03/17 07:26:21;;;;;;;3.60;0.60;;;;;;;;;;4936967;28;20028;-75
2021/03/17 07:28:56;;;;;;;1.52;0.80;;;;;;;;;;4937810;28;20572;-74
2021/03/17 07:31:28;;;;;;;5.20;0.80;;;;;;;;;;4935586;28;20024;-74
2021/03/17 07:33:55;;;;;;;3.83;0.90;;;;;;;;;;4937897;28;20418;-73
2021/03/17 07:36:30;;;;;;;2.47;0.95;;;;;;;;;;4945084;28;20035;-74
2021/03/17 07:38:57;;;;;;;3.33;1.30;;;;;;;;;;4936715;28;20075;-74
2021/03/17 07:41:24;;;;;;;1.95;0.90;;;;;;;;;;4944469;28;20051;-74
2021/03/17 07:43:52;;;;;;;7.47;1.70;;;;;;;;;;4938917;28;20029;-75
2021/03/17 07:46:18;;;;;;;4.80;1.98;;;;;;;;;;4938944;28;20052;-75
2021/03/17 07:48:44;;;;;;;5.15;1.30;;;;;;;;;;4941196;28;20062;-75
2021/03/17 07:51:10;;;;;;;5.95;1.40;;;;;;;;;;4940633;28;20409;-75
2021/03/17 07:53:36;;;;;;;3.03;0.90;;;;;;;;;;4934124;28;20031;-75
2021/03/17 07:56:02;;;;;;;2.80;1.33;;;;;;;;;;4947117;28;20125;-75
2021/03/17 07:58:28;;;;;;;3.28;1.17;;;;;;;;;;4938615;28;20111;-75
2021/03/17 08:00:55;;;;;;;2.22;1.00;;;;;;;;;;4932270;28;20127;-75
2021/03/17 08:03:22;;;;;;;3.90;1.67;;;;;;;;;;4947446;29;20034;-75
2021/03/17 08:05:48;;;;;;;4.45;0.70;;;;;;;;;;4948228;28;20031;-75
2021/03/17 08:08:14;;;;;;;6.50;1.33;;;;;;;;;;4945419;28;20500;-75
2021/03/17 08:10:41;;;;;;;2.58;0.93;;;;;;;;;;4937598;28;20088;-75
2021/03/17 08:13:08;;;;;;;4.40;0.88;;;;;;;;;;4948292;28;20035;-75
2021/03/17 08:15:34;;;;;;;3.08;0.80;;;;;;;;;;4941197;28;20024;-75
2021/03/17 08:18:00;;;;;;;1.70;0.70;;;;;;;;;;4932296;28;20118;-75
2021/03/17 08:20:27;;;;;;;3.47;1.00;;;;;;;;;;4927815;28;20111;-75
2021/03/17 08:22:54;;;;;;;2.85;0.80;;;;;;;;;;4930769;28;20024;-75
2021/03/17 08:25:35;;;;;;;3.10;0.60;;;;;;;;;;4946335;28;20445;-75
2021/03/17 08:28:17;;;;;;;3.15;0.63;;;;;;;;;;4937144;28;20023;-75
2021/03/17 08:30:43;;;;;;;7.18;0.63;;;;;;;;;;4945988;29;20037;-75
2021/03/17 08:33:09;;;;;;;3.03;0.63;;;;;;;;;;4936731;28;20411;-75
2021/03/17 08:35:54;;;;;;;2.42;0.70;;;;;;;;;;4937617;28;20041;-75
2021/03/17 08:38:20;;;;;;;5.40;0.73;;;;;;;;;;4930329;28;20040;-75
2021/03/17 08:40:47;;;;;;;2.83;1.50;;;;;;;;;;4937322;29;20043;-75
2021/03/17 08:43:28;;;;;;;3.67;0.80;;;;;;;;;;4931432;29;20063;-75
2021/03/17 08:46:13;;;;;;;5.57;0.60;;;;;;;;;;4936602;28;20032;-75
2021/03/17 08:48:54;;;;;;;6.07;0.55;;;;;;;;;;4937345;28;20019;-76
2021/03/17 08:51:39;;;;;;;2.22;0.50;;;;;;;;;;4943464;28;20042;-76
2021/03/17 08:54:25;;;;;;;3.72;0.40;;;;;;;;;;4936453;28;20644;-77
2021/03/17 08:56:51;;;;;;;2.33;0.50;;;;;;;;;;4933275;28;20043;-76
2021/03/17 08:59:17;;;;;;;1.85;0.40;;;;;;;;;;4942621;29;20027;-75
2021/03/17 09:01:43;;;;;;;1.77;0.38;;;;;;;;;;4928375;28;20381;-75
2021/03/17 09:04:09;;;;;;;4.22;0.73;;;;;;;;;;4938073;28;20042;-75
2021/03/17 09:06:35;;;;;;;4.85;1.08;;;;;;;;;;4934727;28;20028;-75
2021/03/17 09:09:05;;;;;;;2.38;0.50;;;;;;;;;;4928159;29;20039;-75
2021/03/17 09:11:31;;;;;;;2.35;0.50;;;;;;;;;;4927456;28;20189;-75
2021/03/17 09:14:00;;;;;;;1.70;0.50;;;;;;;;;;4942562;28;20134;-75
2021/03/17 09:16:27;;;;;;;5.53;0.50;;;;;;;;;;4936385;28;20071;-75
2021/03/17 09:19:13;;;;;;;7.75;0.65;;;;;;;;;;4943247;28;20032;-75
2021/03/17 09:21:41;;;;;;;5.95;0.93;;;;;;;;;;4949353;28;20038;-75
2021/03/17 09:24:42;;;;;;;4.45;1.00;;;;;;;;;;4949201;29;20508;-75
2021/03/17 09:27:08;;;;;;;6.45;0.70;;;;;;;;;;5009209;28;20144;-73
2021/03/17 09:29:35;;;;;;;3.88;0.85;;;;;;;;;;4959894;28;20380;-74
2021/03/17 09:32:02;;;;;;;5.68;1.48;;;;;;;;;;4949277;28;20046;-74
2021/03/17 09:34:28;;;;;;;10.52;2.00;;;;;;;;;;4941668;28;20050;-75
2021/03/17 09:37:01;;;;;;;6.97;2.47;;;;;;;;;;4943132;28;20039;-74
2021/03/17 09:39:27;;;;;;;5.32;1.60;;;;;;;;;;4947571;28;20032;-74
2021/03/17 09:41:53;;;;;;;7.88;1.30;;;;;;;;;;4941920;29;20042;-74
2021/03/17 09:44:21;;;;;;;5.00;1.73;;;;;;;;;;4946140;28;20062;-75
2021/03/17 09:46:51;;;;;;;6.57;1.50;;;;;;;;;;4940908;28;20102;-74
2021/03/17 09:49:19;;;;;;;6.88;1.23;;;;;;;;;;4940592;28;20393;-74
2021/03/17 09:51:55;;;;;;;2.35;0.88;;;;;;;;;;4953643;28;20493;-74
2021/03/17 09:54:25;;;;;;;2.28;0.50;;;;;;;;;;4939114;28;20105;-74
2021/03/17 09:57:01;;;;;;;1.98;0.40;;;;;;;;;;4941546;28;20393;-74
2021/03/17 09:59:30;;;;;;;3.35;0.40;;;;;;;;;;4941520;28;20038;-74
2021/03/17 10:02:07;;;;;;;3.47;0.57;;;;;;;;;;4938838;29;20039;-75
2021/03/17 10:04:34;;;;;;;2.65;0.82;;;;;;;;;;4942495;28;20030;-75
2021/03/17 10:07:00;;;;;;;1.50;0.60;;;;;;;;;;4940541;29;20031;-75
2021/03/17 10:09:30;;;;;;;0.82;0.35;;;;;;;;;;4940609;28;20473;-76
2021/03/17 10:12:23;;;;;;;2.83;0.43;;;;;;;;;;4938678;28;20039;-75
2021/03/17 10:14:52;;;;;;;9.48;0.90;;;;;;;;;;4942004;28;20070;-72
2021/03/17 10:17:18;;;;;;;1.10;0.60;;;;;;;;;;4943168;28;20027;-75
2021/03/17 10:19:48;;;;;;;6.15;1.42;;;;;;;;;;4944287;28;20054;-75
2021/03/17 10:22:15;;;;;;;4.38;1.60;;;;;;;;;;4947597;28;20027;-74
2021/03/17 10:24:46;;;;;;;3.95;1.40;;;;;;;;;;4956353;28;20036;-75
2021/03/17 10:27:13;;;;;;;4.38;1.20;;;;;;;;;;4948436;28;20035;-76
2021/03/17 10:29:39;;;;;;;8.35;1.25;;;;;;;;;;4949512;28;20031;-75
2021/03/17 10:32:06;;;;;;;3.53;1.02;;;;;;;;;;4943700;29;20109;-76
2021/03/17 10:34:32;;;;;;;5.68;1.50;;;;;;;;;;4944025;28;20093;-75
2021/03/17 10:36:58;;;;;;;4.35;1.38;;;;;;;;;;4944987;28;20039;-74
2021/03/17 10:39:29;;;;;;;4.93;1.05;;;;;;;;;;4951239;29;20035;-74
2021/03/17 10:41:55;;;;;;;5.45;1.77;;;;;;;;;;4966038;28;20511;-75
2021/03/17 10:44:23;;;;;;;2.00;0.73;;;;;;;;;;4955339;28;20031;-77
2021/03/17 10:47:08;;;;;;;3.45;1.02;;;;;;;;;;4943239;28;20039;-76
2021/03/17 10:49:37;;;;;;;9.68;1.02;;;;;;;;;;4941735;29;20469;-74
2021/03/17 10:52:03;;;;;;;6.72;0.90;;;;;;;;;;4947665;28;20039;-75
2021/03/17 10:54:33;;;;;;;3.97;1.10;;;;;;;;;;4959996;28;20038;-75
2021/03/17 10:57:00;;;;;;;6.45;1.20;;;;;;;;;;4942832;28;20035;-74
2021/03/17 10:59:26;;;;;;;5.55;1.63;;;;;;;;;;4945624;28;20030;-74
2021/03/17 11:02:12;;;;;;;7.68;1.83;;;;;;;;;;4950263;28;20039;-75
2021/03/17 11:04:38;;;;;;;3.83;1.60;;;;;;;;;;4969862;28;20078;-76
2021/03/17 11:07:04;;;;;;;7.50;1.95;;;;;;;;;;4964590;28;20038;-75
2021/03/17 11:09:38;;;;;;;9.52;1.95;;;;;;;;;;4959592;28;20027;-75
2021/03/17 11:12:11;;;;;;;8.63;2.10;;;;;;;;;;4956652;29;20039;-76
2021/03/17 11:14:37;;;;;;;8.70;1.60;;;;;;;;;;4959327;28;20097;-76
2021/03/17 11:17:07;;;;;;;8.43;1.88;;;;;;;;;;4951003;29;20046;-76
2021/03/17 11:19:33;;;;;;;4.82;1.63;;;;;;;;;;4955463;28;20028;-77
2021/03/17 11:21:59;;;;;;;9.20;1.63;;;;;;;;;;4960564;28;20035;-76
2021/03/17 11:24:26;;;;;;;7.63;1.80;;;;;;;;;;4968155;28;20034;-75
2021/03/17 11:26:52;;;;;;;6.28;1.40;;;;;;;;;;4967825;28;20027;-75
2021/03/17 11:29:19;;;;;;;7.03;1.33;;;;;;;;;;4957379;28;20054;-74
2021/03/17 11:31:46;;;;;;;5.82;1.10;;;;;;;;;;4957288;28;20031;-76
2021/03/17 11:34:13;;;;;;;10.32;1.67;;;;;;;;;;4950435;29;20039;-75
2021/03/17 11:36:39;;;;;;;8.43;1.65;;;;;;;;;;4952546;28;20123;-75
2021/03/17 11:39:09;;;;;;;12.38;2.05;;;;;;;;;;4958261;28;20096;-75
2021/03/17 11:41:36;;;;;;;5.57;1.20;;;;;;;;;;4952061;29;20114;-74
2021/03/17 11:44:02;;;;;;;5.88;1.42;;;;;;;;;;4942026;28;20035;-75
2021/03/17 11:46:28;;;;;;;9.45;1.55;;;;;;;;;;4936414;28;20027;-78
2021/03/17 11:48:54;;;;;;;9.07;1.35;;;;;;;;;;4937361;28;20035;-74
2021/03/17 11:51:21;;;;;;;11.00;2.38;;;;;;;;;;4934638;28;20039;-74
2021/03/17 11:53:47;;;;;;;9.70;1.23;;;;;;;;;;4943532;28;20118;-74
2021/03/17 11:56:13;;;;;;;11.00;1.35;;;;;;;;;;4935456;28;20552;-74
2021/03/17 11:58:39;;;;;;;6.35;1.48;;;;;;;;;;4943933;28;20301;-74
2021/03/17 12:01:05;;;;;;;4.72;1.42;;;;;;;;;;4942619;28;20073;-73
2021/03/17 12:03:32;;;;;;;4.13;0.90;;;;;;;;;;4933310;28;20027;-73
2021/03/17 12:05:58;;;;;;;7.57;1.30;;;;;;;;;;4932680;28;20032;-75
2021/03/17 12:08:24;;;;;;;6.25;1.10;;;;;;;;;;4938450;28;20039;-74
2021/03/17 12:10:51;;;;;;;11.43;1.63;;;;;;;;;;4947403;28;20081;-75
2021/03/17 12:13:18;;;;;;;4.32;1.05;;;;;;;;;;4942848;28;20392;-75
2021/03/17 12:15:44;;;;;;;7.18;1.10;;;;;;;;;;4936408;28;20027;-76
2021/03/17 12:18:10;;;;;;;4.75;1.50;;;;;;;;;;4938779;29;20043;-75
2021/03/17 12:20:36;;;;;;;14.40;2.25;;;;;;;;;;4935388;28;20035;-75
2021/03/17 12:23:03;;;;;;;7.15;1.02;;;;;;;;;;4937856;29;20397;-76
2021/03/17 12:25:29;;;;;;;6.38;1.27;;;;;;;;;;4937516;28;20063;-75
2021/03/17 12:27:55;;;;;;;12.02;1.67;;;;;;;;;;4923641;28;20055;-75
2021/03/17 12:30:22;;;;;;;6.05;0.88;;;;;;;;;;4943784;28;20023;-75
2021/03/17 12:32:49;;;;;;;4.68;1.00;;;;;;;;;;4932160;29;20024;-75
2021/03/17 12:35:15;;;;;;;7.25;1.70;;;;;;;;;;4929480;28;20115;-76
2021/03/17 12:37:42;;;;;;;5.30;1.00;;;;;;;;;;4936275;28;20213;-76
2021/03/17 12:40:09;;;;;;;11.50;2.20;;;;;;;;;;4936074;28;20042;-76
2021/03/17 12:42:35;;;;;;;9.07;1.17;;;;;;;;;;4937744;28;20028;-79
2021/03/17 12:45:03;;;;;;;6.85;1.15;;;;;;;;;;4935758;28;20038;-74
2021/03/17 12:47:29;;;;;;;6.68;1.13;;;;;;;;;;4934578;28;20032;-74
2021/03/17 12:49:55;;;;;;;10.45;1.25;;;;;;;;;;4940189;28;20028;-75
2021/03/17 12:52:21;;;;;;;7.40;1.90;;;;;;;;;;4940861;28;20450;-74
2021/03/17 12:54:47;;;;;;;11.77;1.60;;;;;;;;;;4938418;28;20027;-75
2021/03/17 12:57:13;;;;;;;7.72;0.90;;;;;;;;;;4934680;28;20447;-75
2021/03/17 12:59:39;;;;;;;14.00;1.98;;;;;;;;;;4935338;28;20453;-75
2021/03/17 13:02:05;;;;;;;11.05;1.50;;;;;;;;;;4942834;28;20035;-75
2021/03/17 13:04:31;;;;;;;7.88;2.13;;;;;;;;;;4936897;28;20038;-74
2021/03/17 13:06:57;;;;;;;7.70;1.27;;;;;;;;;;4939449;28;20035;-75
2021/03/17 13:09:23;;;;;;;7.35;1.55;;;;;;;;;;4940474;28;20019;-75
2021/03/17 13:11:49;;;;;;;5.60;0.95;;;;;;;;;;4937108;28;20092;-75
2021/03/17 13:14:15;;;;;;;7.55;1.42;;;;;;;;;;4936605;29;20397;-75
2021/03/17 13:16:41;;;;;;;10.25;1.20;;;;;;;;;;4939732;28;20046;-75
2021/03/17 13:19:07;;;;;;;8.27;1.17;;;;;;;;;;4935517;28;20055;-74
2021/03/17 13:21:34;;;;;;;6.55;0.85;;;;;;;;;;4929532;28;20036;-74
2021/03/17 13:24:00;;;;;;;9.15;1.33;;;;;;;;;;4929325;28;20028;-74
2021/03/17 13:26:26;;;;;;;7.53;2.22;;;;;;;;;;4941786;28;20035;-74
2021/03/17 13:28:52;;;;;;;9.10;1.90;;;;;;;;;;4935359;28;20065;-74
2021/03/17 13:31:18;;;;;;;10.55;1.92;;;;;;;;;;4937654;28;20038;-75
2021/03/17 13:33:45;;;;;;;12.05;1.33;;;;;;;;;;4948753;28;20058;-76
2021/03/17 13:36:11;;;;;;;11.45;1.70;;;;;;;;;;4937706;29;20433;-77
2021/03/17 13:38:37;;;;;;;10.07;1.60;;;;;;;;;;4943080;28;20043;-77
2021/03/17 13:41:03;;;;;;;5.55;1.42;;;;;;;;;;4930773;29;20036;-76
2021/03/17 13:43:29;;;;;;;7.72;1.05;;;;;;;;;;4938012;28;20088;-74
2021/03/17 13:45:55;;;;;;;18.50;2.10;;;;;;;;;;4932083;28;20032;-76
2021/03/17 13:48:21;;;;;;;8.50;1.00;;;;;;;;;;4930353;28;20518;-74
2021/03/17 13:50:48;;;;;;;11.60;1.45;;;;;;;;;;4940345;28;20038;-74
2021/03/17 13:53:14;;;;;;;8.73;2.22;;;;;;;;;;4948012;28;20023;-75
2021/03/17 13:55:40;;;;;;;9.73;1.77;;;;;;;;;;4945860;28;20027;-76
2021/03/17 13:58:06;;;;;;;10.48;1.35;;;;;;;;;;4931437;28;20040;-75
2021/03/17 14:00:33;;;;;;;15.45;1.80;;;;;;;;;;4945758;28;20412;-75
2021/03/17 14:02:59;;;;;;;8.65;1.17;;;;;;;;;;4935640;28;20100;-75
2021/03/17 14:05:25;;;;;;;8.00;1.48;;;;;;;;;;4948740;28;20019;-75
2021/03/17 14:07:51;;;;;;;8.07;1.63;;;;;;;;;;4934104;28;20024;-75
2021/03/17 14:10:19;;;;;;;10.27;1.73;;;;;;;;;;4940253;28;20408;-75
2021/03/17 14:12:45;;;;;;;14.20;3.25;;;;;;;;;;4937221;28;20451;-75
2021/03/17 14:15:13;;;;;;;19.15;2.72;;;;;;;;;;4945792;29;20035;-75
2021/03/17 14:17:39;;;;;;;10.50;1.70;;;;;;;;;;4943990;28;20077;-75
2021/03/17 14:20:06;;;;;;;9.02;2.17;;;;;;;;;;4935975;28;20374;-75
2021/03/17 14:22:32;;;;;;;9.48;1.42;;;;;;;;;;4948625;28;20067;-74
2021/03/17 14:24:58;;;;;;;6.10;1.60;;;;;;;;;;4935168;28;20489;-74
2021/03/17 14:27:24;;;;;;;6.85;1.35;;;;;;;;;;4948306;28;20027;-74
2021/03/17 14:29:50;;;;;;;9.45;1.60;;;;;;;;;;4933996;28;20395;-74
2021/03/17 14:32:16;;;;;;;7.60;1.30;;;;;;;;;;4936951;28;20035;-74
2021/03/17 14:34:43;;;;;;;9.82;2.13;;;;;;;;;;4936204;28;20031;-75
2021/03/17 14:37:09;;;;;;;9.32;1.70;;;;;;;;;;4946212;28;20067;-75
2021/03/17 14:39:35;;;;;;;14.50;2.20;;;;;;;;;;4945672;29;20491;-74
2021/03/17 14:42:01;;;;;;;16.27;2.03;;;;;;;;;;4945250;28;20027;-74
2021/03/17 14:44:27;;;;;;;10.73;1.40;;;;;;;;;;4946759;28;20034;-74